Aérodrome :
LOGIN :

S'inscrire | Disclaimer

   EN    FR    IT 

 










Légende :    VFR   VFR Marginal   IFR   IFR Intensif   IFR Très Intensif
Visi : 
Plafond : 
>= 8 km
>= 3000ft
5 à 8 km
1000 à 3000 ft
1500m à 5 km
500 à 1000 ft
800 à 1500m
200 à 500 ft
< 800m
< 200 ft
Symboles :   Orages  Brouillard  Fortes neiges  Fortes précipitations  Vent > 20 kt
SIGMETs :   Divers  Orages  Givrage  Turbulence  Onde Orograph.  Cendres Volcan.







- Altitude de l'aérodrome : 313 ft
- Code IATA : LEH
- Voir les cartes d'approche


LFOH - Le Havre Octeville

DERNIER METAR :
  • 231800Z AUTO 21010KT CAVOK 11/06 Q1009 NOSIG

METARs EXPIRÉS :
  • 231730Z AUTO 22012KT CAVOK 11/06 Q1008 BECMG 16010KT
  • 231700Z AUTO 23015KT 9999 FEW025 OVC050 11/07 Q1008 BECMG 16010KT
  • 231630Z AUTO 24015KT 9999 FEW030 BKN035 BKN041 11/06 Q1008 NOSIG
  • 231600Z AUTO 24013KT 9999 OVC048 11/05 Q1007 TEMPO 26015G25KT
  • 231530Z AUTO 24015KT 9999 BKN043 11/05 Q1007 TEMPO 26015G25KT

TAF AMD TAF LFOH
Valide du 23 à 16h jusqu'au 24 à 12h UTC


231607Z 2316/2412 24015KT 9999 BKN040
BECMG 2318/2320 16010KT
TEMPO 2323/2403 3000 RA BKN005 BKN020CB
PROB30
TEMPO 2323/2403 TSRA
BECMG 2400/2403 32012KT
TEMPO 2403/2410 3000 SHRA BKN013
BECMG 2410/2412 26012KT
TEMPO 2410/2412 4000 SHRA BKN015CB
ATIS : +33 2 35 54 64 93
Pas de NOTAMs connus pour ce terrain.



MET'MAP, la Météo Aéronautique d'un coup d'oeil ! - Copyright ORBIFLY Décembre 2007 - Disclaimer

ORBIFLY MET'MAP TEAM :

Programmation & Développement : Alexandra Zaïnal
Conception & Développement : Baudouin d'Aumeries
Co-Programmation & Développement : Marc-Olivier Méhu
Soutien technique & logistique : Manuel Goepfert

Contact : metmap@orbifly.com




SOURCES & CREDITS :

   NOAA